createdAt,value
2023-04-18T00:01:31.937Z,101070.41
2023-04-18T00:03:58.685Z,101069.50
2023-04-18T00:06:25.936Z,101069.75
2023-04-18T00:08:52.510Z,101061.59
2023-04-18T00:11:19.056Z,101062.53
2023-04-18T00:13:47.367Z,101066.38
2023-04-18T00:16:14.191Z,101067.78
2023-04-18T00:18:40.767Z,101065.38
2023-04-18T00:21:08.596Z,101067.00
2023-04-18T00:23:36.054Z,101062.09
2023-04-18T00:26:03.146Z,101057.88
2023-04-18T00:28:29.764Z,101048.94
2023-04-18T00:30:56.593Z,101056.59
2023-04-18T00:33:23.310Z,101056.03
2023-04-18T00:35:49.862Z,101057.53
2023-04-18T00:38:16.487Z,101053.88
2023-04-18T00:40:43.060Z,101048.78
2023-04-18T00:43:09.632Z,101058.00
2023-04-18T00:45:37.048Z,101053.63
2023-04-18T00:48:03.680Z,101045.53
2023-04-18T00:50:30.997Z,101052.44
2023-04-18T00:52:58.298Z,101048.97
2023-04-18T00:55:25.024Z,101048.97
2023-04-18T00:57:52.214Z,101051.03
2023-04-18T01:00:18.969Z,101042.50
2023-04-18T01:02:47.128Z,101045.69
2023-04-18T01:05:13.891Z,101035.84
2023-04-18T01:07:43.488Z,101051.72
2023-04-18T01:10:11.021Z,101042.06
2023-04-18T01:12:37.764Z,101047.94
2023-04-18T01:15:07.559Z,101046.88
2023-04-18T01:17:38.466Z,101044.06
2023-04-18T01:20:06.483Z,101041.28
2023-04-18T01:22:33.451Z,101041.16
2023-04-18T01:25:00.033Z,101043.56
2023-04-18T01:27:26.569Z,101038.72
2023-04-18T01:29:53.127Z,101040.72
2023-04-18T01:32:20.543Z,101040.38
2023-04-18T01:34:47.373Z,101039.97
2023-04-18T01:37:13.964Z,101042.56
2023-04-18T01:39:40.512Z,101037.44
2023-04-18T01:42:07.080Z,101033.31
2023-04-18T01:44:33.757Z,101026.81
2023-04-18T01:47:00.308Z,101037.28
2023-04-18T01:49:26.947Z,101035.34
2023-04-18T01:51:53.484Z,101035.44
2023-04-18T01:54:20.074Z,101032.66
2023-04-18T01:56:46.652Z,101035.66
2023-04-18T01:59:13.201Z,101037.59
2023-04-18T02:01:39.771Z,101041.72
2023-04-18T02:04:06.354Z,101038.47
2023-04-18T02:06:32.887Z,101045.75
2023-04-18T02:08:59.456Z,101036.00
2023-04-18T02:11:26.250Z,101031.13
2023-04-18T02:13:52.776Z,101039.28
2023-04-18T02:16:19.345Z,101034.25
2023-04-18T02:18:47.067Z,101031.81
2023-04-18T02:21:13.589Z,101031.47
2023-04-18T02:23:40.189Z,101038.78
2023-04-18T02:26:06.742Z,101034.16
2023-04-18T02:28:33.325Z,101036.28
2023-04-18T02:31:00.094Z,101042.47
2023-04-18T02:33:26.630Z,101045.28
2023-04-18T02:35:53.193Z,101044.28
2023-04-18T02:38:19.805Z,101040.41
2023-04-18T02:40:46.434Z,101039.28
2023-04-18T02:43:13.013Z,101042.63
2023-04-18T02:45:39.626Z,101040.19
2023-04-18T02:48:06.283Z,101038.44
2023-04-18T02:50:32.868Z,101038.38
2023-04-18T02:52:59.379Z,101037.47
2023-04-18T02:55:26.925Z,101033.00
2023-04-18T02:57:53.560Z,101040.34
2023-04-18T03:00:20.224Z,101040.91
2023-04-18T03:02:46.865Z,101048.97
2023-04-18T03:05:13.538Z,101054.94
2023-04-18T03:07:40.124Z,101044.81
2023-04-18T03:10:07.091Z,101042.09
2023-04-18T03:12:33.768Z,101045.78
2023-04-18T03:15:00.371Z,101047.38
2023-04-18T03:17:27.106Z,101049.97
2023-04-18T03:19:53.744Z,101051.94
2023-04-18T03:22:20.422Z,101046.91
2023-04-18T03:24:46.975Z,101051.47
2023-04-18T03:27:13.914Z,101050.53
2023-04-18T03:29:40.445Z,101053.41
2023-04-18T03:32:06.967Z,101056.22
2023-04-18T03:34:33.573Z,101057.06
2023-04-18T03:37:00.160Z,101054.56
2023-04-18T03:39:26.723Z,101052.59
2023-04-18T03:41:53.434Z,101056.09
2023-04-18T03:44:19.985Z,101063.97
2023-04-18T03:46:46.620Z,101057.25
2023-04-18T03:49:13.263Z,101056.63
2023-04-18T03:51:47.246Z,101055.78
2023-04-18T03:54:15.347Z,101053.19
2023-04-18T03:56:42.508Z,101061.97
2023-04-18T03:59:09.067Z,101075.06
2023-04-18T04:01:35.723Z,101061.06
2023-04-18T04:04:03.089Z,101069.81
2023-04-18T04:06:30.101Z,101070.09
2023-04-18T04:08:56.638Z,101068.25
2023-04-18T04:11:23.402Z,101065.94
2023-04-18T04:13:49.939Z,101080.19
2023-04-18T04:16:16.574Z,101083.63
2023-04-18T04:18:43.126Z,101076.69
2023-04-18T04:21:09.749Z,101077.66
2023-04-18T04:23:36.332Z,101079.56
2023-04-18T04:26:05.691Z,101086.88
2023-04-18T04:28:32.163Z,101079.97
2023-04-18T04:30:59.293Z,101086.69
2023-04-18T04:33:28.505Z,101088.66
2023-04-18T04:35:55.503Z,101096.84
2023-04-18T04:38:25.127Z,101094.03
2023-04-18T04:40:52.926Z,101096.88
2023-04-18T04:43:20.484Z,101098.31
2023-04-18T04:45:52.603Z,101095.03
2023-04-18T04:48:20.311Z,101093.28
2023-04-18T04:50:56.333Z,101104.75
2023-04-18T04:53:24.116Z,101106.63
2023-04-18T04:55:51.762Z,101110.94
2023-04-18T04:58:19.080Z,101117.81
2023-04-18T05:00:46.026Z,101115.75
2023-04-18T05:03:12.661Z,101119.66
2023-04-18T05:05:39.706Z,101108.91
2023-04-18T05:08:06.498Z,101119.47
2023-04-18T05:10:33.172Z,101113.53
2023-04-18T05:12:59.664Z,101110.72
2023-04-18T05:15:26.190Z,101119.44
2023-04-18T05:17:52.929Z,101120.19
2023-04-18T05:20:19.522Z,101115.94
2023-04-18T05:22:46.020Z,101116.22
2023-04-18T05:25:12.746Z,101125.78
2023-04-18T05:27:39.533Z,101122.44
2023-04-18T05:30:06.907Z,101130.56
2023-04-18T05:32:33.519Z,101126.25
2023-04-18T05:35:00.110Z,101129.91
2023-04-18T05:37:26.694Z,101125.78
2023-04-18T05:39:53.227Z,101124.00
2023-04-18T05:42:19.769Z,101125.84
2023-04-18T05:44:46.286Z,101129.09
2023-04-18T05:47:12.808Z,101135.41
2023-04-18T05:49:39.333Z,101128.59
2023-04-18T05:52:05.884Z,101130.56
2023-04-18T05:54:32.443Z,101139.34
2023-04-18T05:56:59.677Z,101134.91
2023-04-18T05:59:26.960Z,101129.91
2023-04-18T06:01:53.574Z,101132.13
2023-04-18T06:04:20.844Z,101140.69
2023-04-18T06:06:47.750Z,101138.78
2023-04-18T06:09:14.292Z,101135.88
2023-04-18T06:11:40.849Z,101139.97
2023-04-18T06:14:07.898Z,101146.97
2023-04-18T06:16:36.691Z,101142.75
2023-04-18T06:19:05.096Z,101139.09
2023-04-18T06:21:32.121Z,101143.22
2023-04-18T06:23:58.719Z,101148.31
2023-04-18T06:26:25.254Z,101153.81
2023-04-18T06:28:51.812Z,101157.50
2023-04-18T06:31:18.570Z,101161.88
2023-04-18T06:33:45.179Z,101166.19
2023-04-18T06:36:11.739Z,101161.09
2023-04-18T06:38:38.299Z,101168.47
2023-04-18T06:41:04.962Z,101165.38
2023-04-18T06:43:31.613Z,101164.22
2023-04-18T06:45:59.123Z,101172.81
2023-04-18T06:48:25.691Z,101173.53
2023-04-18T06:50:52.210Z,101169.81
2023-04-18T06:53:18.739Z,101163.47
2023-04-18T06:55:45.363Z,101165.03
2023-04-18T06:58:13.807Z,101151.19
2023-04-18T07:00:40.569Z,101158.72
2023-04-18T07:03:11.304Z,101166.16
2023-04-18T07:05:41.716Z,101164.63
2023-04-18T07:08:08.354Z,101157.91
2023-04-18T07:10:34.983Z,101158.03
2023-04-18T07:13:01.683Z,101159.91
2023-04-18T07:15:28.534Z,101163.06
2023-04-18T07:17:55.285Z,101161.91
2023-04-18T07:20:21.861Z,101158.16
2023-04-18T07:22:48.690Z,101166.78
2023-04-18T07:25:15.281Z,101161.00
2023-04-18T07:27:41.874Z,101172.34
2023-04-18T07:30:09.152Z,101174.53
2023-04-18T07:32:35.771Z,101175.88
2023-04-18T07:35:03.372Z,101182.06
2023-04-18T07:37:30.022Z,101177.66
2023-04-18T07:39:56.561Z,101183.72
2023-04-18T07:42:23.117Z,101175.03
2023-04-18T07:44:49.731Z,101180.66
2023-04-18T07:47:16.477Z,101174.25
2023-04-18T07:49:43.002Z,101176.13
2023-04-18T07:52:09.562Z,101178.13
2023-04-18T07:54:36.142Z,101176.03
2023-04-18T07:57:02.639Z,101180.19
2023-04-18T07:59:29.759Z,101182.75
2023-04-18T08:01:56.399Z,101186.09
2023-04-18T08:04:23.255Z,101184.06
2023-04-18T08:06:49.908Z,101184.84
2023-04-18T08:09:18.435Z,101180.09
2023-04-18T08:11:45.132Z,101175.63
2023-04-18T08:14:11.990Z,101182.03
2023-04-18T08:16:39.227Z,101176.03
2023-04-18T08:19:06.211Z,101181.34
2023-04-18T08:21:32.923Z,101176.16
2023-04-18T08:23:59.537Z,101175.22
2023-04-18T08:26:26.868Z,101184.13
2023-04-18T08:28:53.790Z,101183.16
2023-04-18T08:31:20.697Z,101176.22
2023-04-18T08:33:47.279Z,101178.41
2023-04-18T08:36:14.040Z,101187.34
2023-04-18T08:38:40.560Z,101181.31
2023-04-18T08:41:08.253Z,101194.56
2023-04-18T08:43:34.803Z,101175.00
2023-04-18T08:46:01.700Z,101181.03
2023-04-18T08:48:28.378Z,101175.78
2023-04-18T08:50:59.354Z,101177.16
2023-04-18T08:53:26.890Z,101178.22
2023-04-18T08:55:57.989Z,101187.94
2023-04-18T08:58:27.592Z,101191.81
2023-04-18T09:00:54.925Z,101201.28
2023-04-18T09:03:42.299Z,101193.78
2023-04-18T09:06:18.960Z,101197.03
2023-04-18T09:08:59.199Z,101196.22
2023-04-18T09:11:30.265Z,101194.06
2023-04-18T09:13:59.055Z,101188.56
2023-04-18T09:16:27.436Z,101186.31
2023-04-18T09:19:16.262Z,101183.53
2023-04-18T09:21:48.722Z,101187.41
2023-04-18T09:24:21.129Z,101190.28
2023-04-18T09:26:49.801Z,101188.81
2023-04-18T09:29:22.273Z,101192.44
2023-04-18T09:32:01.065Z,101190.81
2023-04-18T09:34:28.987Z,101197.63
2023-04-18T09:37:13.577Z,101201.50
2023-04-18T09:39:42.428Z,101189.81
2023-04-18T09:42:10.516Z,101191.56
2023-04-18T09:44:38.442Z,101196.25
2023-04-18T09:47:07.858Z,101195.66
2023-04-18T09:49:34.695Z,101193.88
2023-04-18T09:52:06.309Z,101192.84
2023-04-18T09:54:35.396Z,101199.78
2023-04-18T09:57:05.998Z,101194.47
2023-04-18T09:59:48.101Z,101194.19
2023-04-18T10:02:19.750Z,101197.72
2023-04-18T10:04:47.350Z,101188.22
2023-04-18T10:07:16.774Z,101192.88
2023-04-18T10:09:46.773Z,101189.34
2023-04-18T10:12:14.065Z,101185.06
2023-04-18T10:14:43.195Z,101191.38
2023-04-18T10:17:11.061Z,101194.69
2023-04-18T10:19:41.266Z,101196.41
2023-04-18T10:22:08.108Z,101197.44
2023-04-18T10:24:53.600Z,101196.72
2023-04-18T10:27:49.344Z,101197.25
2023-04-18T10:30:16.699Z,101191.19
2023-04-18T10:32:45.495Z,101192.22
2023-04-18T10:35:12.226Z,101188.50
2023-04-18T10:37:59.784Z,101190.59
2023-04-18T10:40:35.438Z,101188.56
2023-04-18T10:43:02.193Z,101188.94
2023-04-18T10:45:31.372Z,101192.28
2023-04-18T10:48:31.298Z,101182.88
2023-04-18T10:51:17.761Z,101187.22
2023-04-18T10:53:49.951Z,101178.03
2023-04-18T10:56:16.833Z,101189.03
2023-04-18T10:58:50.014Z,101185.38
2023-04-18T11:01:31.660Z,101186.91
2023-04-18T11:03:59.171Z,101181.66
2023-04-18T11:06:27.216Z,101187.47
2023-04-18T11:09:13.776Z,101186.59
2023-04-18T11:11:41.862Z,101184.75
2023-04-18T11:14:08.453Z,101188.69
2023-04-18T11:16:35.654Z,101187.81
2023-04-18T11:19:21.215Z,101188.38
2023-04-18T11:21:47.750Z,101192.63
2023-04-18T11:24:22.027Z,101194.31
2023-04-18T11:26:48.588Z,101194.22
2023-04-18T11:29:17.994Z,101188.81
2023-04-18T11:31:50.056Z,101184.03
2023-04-18T11:34:16.767Z,101184.69
2023-04-18T11:36:43.470Z,101196.09
2023-04-18T11:39:10.544Z,101188.88
2023-04-18T11:41:37.121Z,101192.44
2023-04-18T11:44:06.329Z,101188.03
2023-04-18T11:46:39.855Z,101193.38
2023-04-18T11:49:06.376Z,101186.09
2023-04-18T11:51:44.709Z,101192.44
2023-04-18T11:54:42.995Z,101193.22
2023-04-18T11:57:22.386Z,101197.59
2023-04-18T11:59:57.852Z,101197.13
2023-04-18T12:02:25.842Z,101200.34
2023-04-18T12:05:00.210Z,101192.38
2023-04-18T12:07:40.014Z,101192.06
2023-04-18T12:10:28.240Z,101191.19
2023-04-18T12:12:57.557Z,101198.25
2023-04-18T12:15:28.568Z,101200.03
2023-04-18T12:18:02.543Z,101191.84
2023-04-18T12:20:51.859Z,101198.25
2023-04-18T12:23:39.018Z,101190.69
2023-04-18T12:26:21.078Z,101190.47
2023-04-18T12:28:50.386Z,101195.56
2023-04-18T12:31:17.097Z,101193.56
2023-04-18T12:33:43.686Z,101192.03
2023-04-18T12:36:12.786Z,101191.13
2023-04-18T12:38:39.539Z,101196.16
2023-04-18T12:41:06.302Z,101187.19
2023-04-18T12:43:32.855Z,101192.19
2023-04-18T12:45:59.974Z,101190.84
2023-04-18T12:48:26.554Z,101181.16
2023-04-18T12:50:53.107Z,101188.28
2023-04-18T12:53:19.683Z,101191.75
2023-04-18T12:55:46.266Z,101198.00
2023-04-18T12:58:18.399Z,101187.41
2023-04-18T13:00:44.940Z,101196.00
2023-04-18T13:03:13.469Z,101199.81
2023-04-18T13:05:40.453Z,101190.06
2023-04-18T13:08:16.141Z,101185.69
2023-04-18T13:10:45.101Z,101191.75
2023-04-18T13:13:11.912Z,101184.81
2023-04-18T13:15:38.778Z,101183.19
2023-04-18T13:18:06.742Z,101186.28
2023-04-18T13:20:34.440Z,101183.06
2023-04-18T13:23:02.810Z,101183.28
2023-04-18T13:25:29.603Z,101177.91
2023-04-18T13:27:58.241Z,101180.06
2023-04-18T13:30:24.797Z,101185.91
2023-04-18T13:32:51.761Z,101182.06
2023-04-18T13:35:18.527Z,101187.78
2023-04-18T13:37:46.117Z,101187.59
2023-04-18T13:40:14.456Z,101182.88
2023-04-18T13:42:41.088Z,101180.75
2023-04-18T13:45:08.011Z,101183.19
2023-04-18T13:47:34.995Z,101188.16
2023-04-18T13:50:01.717Z,101182.03
2023-04-18T13:52:28.434Z,101188.00
2023-04-18T13:54:55.019Z,101180.41
2023-04-18T13:57:22.026Z,101181.44
2023-04-18T13:59:48.632Z,101180.59
2023-04-18T14:02:15.300Z,101182.56
2023-04-18T14:04:42.004Z,101181.81
2023-04-18T14:07:09.131Z,101183.13
2023-04-18T14:09:35.781Z,101178.13
2023-04-18T14:12:02.319Z,101177.13
2023-04-18T14:14:29.172Z,101182.19
2023-04-18T14:16:55.806Z,101180.91
2023-04-18T14:19:22.423Z,101183.00
2023-04-18T14:21:48.953Z,101182.22
2023-04-18T14:24:15.707Z,101183.78
2023-04-18T14:26:42.456Z,101174.88
2023-04-18T14:29:09.013Z,101183.88
2023-04-18T14:31:35.776Z,101181.66
2023-04-18T14:34:02.702Z,101180.16
2023-04-18T14:36:29.417Z,101187.41
2023-04-18T14:38:55.997Z,101175.78
2023-04-18T14:41:23.889Z,101177.44
2023-04-18T14:43:50.440Z,101170.59
2023-04-18T14:46:17.092Z,101163.50
2023-04-18T14:48:50.014Z,101166.94
2023-04-18T14:51:16.869Z,101167.00
2023-04-18T14:53:44.610Z,101166.25
2023-04-18T14:56:11.397Z,101174.25
2023-04-18T14:58:38.042Z,101168.16
2023-04-18T15:01:05.751Z,101166.75
2023-04-18T15:03:32.587Z,101167.38
2023-04-18T15:05:59.280Z,101165.59
2023-04-18T15:08:25.990Z,101169.16
2023-04-18T15:10:52.581Z,101165.47
2023-04-18T15:13:19.453Z,101166.16
2023-04-18T15:15:53.984Z,101168.38
2023-04-18T15:18:21.209Z,101165.59
2023-04-18T15:20:48.244Z,101163.88
2023-04-18T15:23:15.388Z,101164.16
2023-04-18T15:25:44.312Z,101164.00
2023-04-18T15:28:13.273Z,101165.50
2023-04-18T15:30:40.180Z,101164.31
2023-04-18T15:33:07.221Z,101168.50
2023-04-18T15:35:34.344Z,101171.16
2023-04-18T15:38:01.011Z,101166.81
2023-04-18T15:40:27.627Z,101164.16
2023-04-18T15:42:54.564Z,101174.44
2023-04-18T15:45:21.802Z,101171.16
2023-04-18T15:47:48.459Z,101167.31
2023-04-18T15:50:18.224Z,101164.72
2023-04-18T15:52:44.769Z,101162.59
2023-04-18T15:55:22.195Z,101161.31
2023-04-18T15:57:48.846Z,101165.25
2023-04-18T16:00:16.058Z,101159.72
2023-04-18T16:02:46.671Z,101163.94
2023-04-18T16:05:14.068Z,101162.03
2023-04-18T16:07:42.228Z,101164.53
2023-04-18T16:10:10.558Z,101170.66
2023-04-18T16:12:38.665Z,101163.44
2023-04-18T16:15:06.985Z,101172.72
2023-04-18T16:17:33.602Z,101163.50
2023-04-18T16:20:00.309Z,101173.06
2023-04-18T16:22:26.872Z,101169.22
2023-04-18T16:24:53.404Z,101167.31
2023-04-18T16:27:20.000Z,101161.53
2023-04-18T16:29:47.229Z,101168.53
2023-04-18T16:32:13.824Z,101164.81
2023-04-18T16:34:40.351Z,101161.72
2023-04-18T16:37:06.881Z,101161.59
2023-04-18T16:39:33.541Z,101161.88
2023-04-18T16:42:00.064Z,101162.75
2023-04-18T16:44:26.629Z,101161.00
2023-04-18T16:46:53.178Z,101156.44
2023-04-18T16:49:20.498Z,101164.78
2023-04-18T16:51:47.111Z,101168.00
2023-04-18T16:54:13.971Z,101167.16
2023-04-18T16:56:41.387Z,101162.03
2023-04-18T16:59:09.388Z,101158.03
2023-04-18T17:01:36.216Z,101161.28
2023-04-18T17:04:02.992Z,101166.75
2023-04-18T17:06:31.513Z,101165.50
2023-04-18T17:08:58.907Z,101160.09
2023-04-18T17:11:25.539Z,101161.63
2023-04-18T17:13:52.233Z,101164.59
2023-04-18T17:16:18.887Z,101168.84
2023-04-18T17:18:45.449Z,101171.50
2023-04-18T17:21:12.594Z,101169.28
2023-04-18T17:23:41.570Z,101162.25
2023-04-18T17:26:09.214Z,101170.16
2023-04-18T17:28:36.480Z,101177.44
2023-04-18T17:31:03.212Z,101171.34
2023-04-18T17:33:30.388Z,101173.94
2023-04-18T17:35:57.437Z,101177.94
2023-04-18T17:38:24.138Z,101177.00
2023-04-18T17:41:01.906Z,101177.44
2023-04-18T17:43:31.008Z,101173.00
2023-04-18T17:45:59.662Z,101175.06
2023-04-18T17:48:28.433Z,101174.31
2023-04-18T17:50:54.979Z,101180.75
2023-04-18T17:53:22.345Z,101170.81
2023-04-18T17:55:52.054Z,101176.44
2023-04-18T17:58:19.821Z,101175.28
2023-04-18T18:00:46.552Z,101169.66
2023-04-18T18:03:14.565Z,101174.28
2023-04-18T18:05:41.931Z,101174.00
2023-04-18T18:08:11.183Z,101171.16
2023-04-18T18:10:37.760Z,101176.66
2023-04-18T18:13:04.712Z,101182.88
2023-04-18T18:15:31.968Z,101186.03
2023-04-18T18:17:59.579Z,101185.72
2023-04-18T18:20:27.366Z,101188.84
2023-04-18T18:23:00.002Z,101189.38
2023-04-18T18:25:27.458Z,101177.91
2023-04-18T18:27:54.588Z,101185.13
2023-04-18T18:30:21.143Z,101183.13
2023-04-18T18:32:47.879Z,101179.72
2023-04-18T18:35:14.448Z,101182.34
2023-04-18T18:37:41.069Z,101182.97
2023-04-18T18:40:08.482Z,101188.78
2023-04-18T18:42:35.169Z,101187.66
2023-04-18T18:45:02.726Z,101183.34
2023-04-18T18:47:30.566Z,101193.59
2023-04-18T18:49:57.273Z,101191.00
2023-04-18T18:52:24.783Z,101192.31
2023-04-18T18:54:51.427Z,101188.97
2023-04-18T18:57:17.961Z,101194.31
2023-04-18T18:59:44.499Z,101186.91
2023-04-18T19:02:11.601Z,101190.22
2023-04-18T19:04:38.377Z,101190.72
2023-04-18T19:07:06.007Z,101191.63
2023-04-18T19:09:32.699Z,101190.56
2023-04-18T19:11:59.364Z,101187.78
2023-04-18T19:14:25.967Z,101193.50
2023-04-18T19:16:53.092Z,101189.78
2023-04-18T19:19:19.602Z,101197.38
2023-04-18T19:21:46.287Z,101191.56
2023-04-18T19:24:13.315Z,101192.16
2023-04-18T19:26:40.010Z,101191.22
2023-04-18T19:29:07.839Z,101194.69
2023-04-18T19:31:35.121Z,101185.13
2023-04-18T19:34:02.356Z,101183.06
2023-04-18T19:36:28.864Z,101185.50
2023-04-18T19:38:55.380Z,101181.00
2023-04-18T19:41:21.980Z,101187.94
2023-04-18T19:43:48.567Z,101182.66
2023-04-18T19:46:15.460Z,101179.66
2023-04-18T19:48:42.080Z,101178.00
2023-04-18T19:51:08.567Z,101174.16
2023-04-18T19:53:35.070Z,101174.44
2023-04-18T19:56:01.702Z,101173.41
2023-04-18T19:58:45.009Z,101170.34
2023-04-18T20:01:12.864Z,101171.16
2023-04-18T20:03:40.989Z,101176.22
2023-04-18T20:06:08.336Z,101177.38
2023-04-18T20:08:39.436Z,101177.38
2023-04-18T20:11:10.434Z,101166.94
2023-04-18T20:13:37.502Z,101170.44
2023-04-18T20:16:05.370Z,101172.06
2023-04-18T20:18:32.502Z,101167.66
2023-04-18T20:20:59.033Z,101164.59
2023-04-18T20:23:25.551Z,101166.00
2023-04-18T20:25:52.114Z,101168.81
2023-04-18T20:28:18.660Z,101160.25
2023-04-18T20:30:45.707Z,101166.78
2023-04-18T20:33:12.518Z,101167.16
2023-04-18T20:35:39.064Z,101166.09
2023-04-18T20:38:06.534Z,101162.00
2023-04-18T20:40:34.208Z,101162.88
2023-04-18T20:43:02.941Z,101162.22
2023-04-18T20:45:29.971Z,101153.38
2023-04-18T20:47:56.906Z,101161.38
2023-04-18T20:50:23.520Z,101163.06
2023-04-18T20:52:50.090Z,101154.19
2023-04-18T20:55:19.420Z,101156.25
2023-04-18T20:57:46.028Z,101160.53
2023-04-18T21:00:14.049Z,101161.16
2023-04-18T21:02:41.654Z,101156.94
2023-04-18T21:05:08.846Z,101159.47
2023-04-18T21:07:36.354Z,101158.59
2023-04-18T21:10:04.003Z,101146.25
2023-04-18T21:12:30.588Z,101147.16
2023-04-18T21:14:57.098Z,101142.59
2023-04-18T21:17:25.547Z,101145.75
2023-04-18T21:19:52.621Z,101150.25
2023-04-18T21:22:19.282Z,101148.44
2023-04-18T21:24:46.795Z,101147.03
2023-04-18T21:27:15.064Z,101144.69
2023-04-18T21:29:41.814Z,101146.59
2023-04-18T21:32:08.373Z,101142.31
2023-04-18T21:34:34.854Z,101140.47
2023-04-18T21:37:01.439Z,101143.03
2023-04-18T21:39:28.023Z,101135.03
2023-04-18T21:41:54.530Z,101141.25
2023-04-18T21:44:21.122Z,101131.81
2023-04-18T21:46:47.652Z,101134.66
2023-04-18T21:49:14.370Z,101131.19
2023-04-18T21:51:40.882Z,101128.38
2023-04-18T21:54:07.908Z,101126.97
2023-04-18T21:56:34.444Z,101128.59
2023-04-18T21:59:01.018Z,101121.34
2023-04-18T22:01:27.704Z,101117.97
2023-04-18T22:03:54.356Z,101117.25
2023-04-18T22:06:23.095Z,101116.38
2023-04-18T22:08:50.041Z,101111.34
2023-04-18T22:11:16.661Z,101114.75
2023-04-18T22:13:45.110Z,101112.34
2023-04-18T22:16:11.977Z,101106.03
2023-04-18T22:18:38.550Z,101106.19
2023-04-18T22:21:05.280Z,101110.81
2023-04-18T22:23:31.935Z,101102.28
2023-04-18T22:25:58.548Z,101100.19
2023-04-18T22:28:27.756Z,101098.41
2023-04-18T22:30:54.367Z,101089.25
2023-04-18T22:33:20.942Z,101098.06
2023-04-18T22:35:48.570Z,101090.34
2023-04-18T22:38:15.361Z,101089.25
2023-04-18T22:40:42.081Z,101093.34
2023-04-18T22:43:08.585Z,101097.63
2023-04-18T22:45:35.294Z,101092.22
2023-04-18T22:48:01.895Z,101090.97
2023-04-18T22:50:30.198Z,101090.19
2023-04-18T22:52:57.506Z,101086.13
2023-04-18T22:55:24.098Z,101089.63
2023-04-18T22:57:50.647Z,101092.28
2023-04-18T23:00:17.344Z,101085.06
2023-04-18T23:02:44.089Z,101084.13
2023-04-18T23:05:11.537Z,101087.13
2023-04-18T23:07:38.062Z,101076.22
2023-04-18T23:10:06.713Z,101080.34
2023-04-18T23:12:33.368Z,101078.22
2023-04-18T23:14:59.941Z,101083.19
2023-04-18T23:17:26.508Z,101072.00
2023-04-18T23:19:53.041Z,101077.00
2023-04-18T23:22:20.393Z,101080.41
2023-04-18T23:24:46.899Z,101079.63
2023-04-18T23:27:13.393Z,101069.91
2023-04-18T23:29:40.016Z,101071.81
2023-04-18T23:32:08.232Z,101063.66
2023-04-18T23:34:34.778Z,101057.59
2023-04-18T23:37:01.320Z,101063.16
2023-04-18T23:39:27.881Z,101066.78
2023-04-18T23:41:54.457Z,101058.78
2023-04-18T23:44:20.976Z,101064.34
2023-04-18T23:46:48.063Z,101058.38
2023-04-18T23:49:15.405Z,101049.22
2023-04-18T23:51:42.498Z,101048.66
2023-04-18T23:54:09.036Z,101049.31
2023-04-18T23:56:35.744Z,101048.66
2023-04-18T23:59:02.468Z,101043.25
